sensor_id;sensor_type;location;lat;lon;timestamp;temperature;humidity
30534;DHT22;17318;52.390;9.754;2023-06-01T00:02:14;14.40;96.90
30534;DHT22;17318;52.390;9.754;2023-06-01T00:04:40;14.60;96.40
30534;DHT22;17318;52.390;9.754;2023-06-01T00:07:09;14.70;96.10
30534;DHT22;17318;52.390;9.754;2023-06-01T00:09:36;14.60;96.20
30534;DHT22;17318;52.390;9.754;2023-06-01T00:12:02;14.60;96.30
30534;DHT22;17318;52.390;9.754;2023-06-01T00:14:28;14.70;96.20
30534;DHT22;17318;52.390;9.754;2023-06-01T00:16:54;14.50;96.30
30534;DHT22;17318;52.390;9.754;2023-06-01T00:19:22;14.40;96.70
30534;DHT22;17318;52.390;9.754;2023-06-01T00:21:47;14.40;96.60
30534;DHT22;17318;52.390;9.754;2023-06-01T00:24:13;14.50;96.30
30534;DHT22;17318;52.390;9.754;2023-06-01T00:26:39;14.70;96.00
30534;DHT22;17318;52.390;9.754;2023-06-01T00:29:04;14.40;96.50
30534;DHT22;17318;52.390;9.754;2023-06-01T00:31:30;14.50;96.50
30534;DHT22;17318;52.390;9.754;2023-06-01T00:33:56;14.60;96.40
30534;DHT22;17318;52.390;9.754;2023-06-01T00:36:21;14.70;95.90
30534;DHT22;17318;52.390;9.754;2023-06-01T00:38:47;14.80;95.80
30534;DHT22;17318;52.390;9.754;2023-06-01T00:41:13;14.70;96.00
30534;DHT22;17318;52.390;9.754;2023-06-01T00:43:38;14.60;95.90
30534;DHT22;17318;52.390;9.754;2023-06-01T00:46:05;14.70;96.00
30534;DHT22;17318;52.390;9.754;2023-06-01T00:48:31;14.40;96.50
30534;DHT22;17318;52.390;9.754;2023-06-01T00:50:56;14.50;96.40
30534;DHT22;17318;52.390;9.754;2023-06-01T00:53:24;14.40;96.40
30534;DHT22;17318;52.390;9.754;2023-06-01T00:55:50;14.50;96.50
30534;DHT22;17318;52.390;9.754;2023-06-01T00:58:16;14.50;96.60
30534;DHT22;17318;52.390;9.754;2023-06-01T01:00:42;14.60;96.30
30534;DHT22;17318;52.390;9.754;2023-06-01T01:03:08;14.80;95.90
30534;DHT22;17318;52.390;9.754;2023-06-01T01:05:36;14.90;95.80
30534;DHT22;17318;52.390;9.754;2023-06-01T01:08:28;14.70;96.00
30534;DHT22;17318;52.390;9.754;2023-06-01T01:11:06;14.80;95.90
30534;DHT22;17318;52.390;9.754;2023-06-01T01:13:52;15.00;95.60
30534;DHT22;17318;52.390;9.754;2023-06-01T01:16:30;14.80;95.80
30534;DHT22;17318;52.390;9.754;2023-06-01T01:21:42;14.70;96.00
30534;DHT22;17318;52.390;9.754;2023-06-01T01:24:43;14.90;95.80
30534;DHT22;17318;52.390;9.754;2023-06-01T01:27:23;15.00;95.40
30534;DHT22;17318;52.390;9.754;2023-06-01T01:29:52;15.00;95.40
30534;DHT22;17318;52.390;9.754;2023-06-01T01:32:20;15.00;95.20
30534;DHT22;17318;52.390;9.754;2023-06-01T01:34:48;15.00;95.50
30534;DHT22;17318;52.390;9.754;2023-06-01T01:37:15;15.10;95.40
30534;DHT22;17318;52.390;9.754;2023-06-01T01:39:41;15.00;95.60
30534;DHT22;17318;52.390;9.754;2023-06-01T01:42:07;14.90;95.90
30534;DHT22;17318;52.390;9.754;2023-06-01T01:44:33;14.90;95.90
30534;DHT22;17318;52.390;9.754;2023-06-01T01:47:05;15.00;95.80
30534;DHT22;17318;52.390;9.754;2023-06-01T01:49:48;14.90;95.80
30534;DHT22;17318;52.390;9.754;2023-06-01T01:52:18;15.10;95.20
30534;DHT22;17318;52.390;9.754;2023-06-01T01:54:47;15.00;95.50
30534;DHT22;17318;52.390;9.754;2023-06-01T01:57:15;14.70;95.90
30534;DHT22;17318;52.390;9.754;2023-06-01T01:59:42;14.80;96.10
30534;DHT22;17318;52.390;9.754;2023-06-01T02:02:09;14.60;96.30
30534;DHT22;17318;52.390;9.754;2023-06-01T02:04:44;14.60;96.30
30534;DHT22;17318;52.390;9.754;2023-06-01T02:07:13;14.80;96.00
30534;DHT22;17318;52.390;9.754;2023-06-01T02:09:39;14.80;96.20
30534;DHT22;17318;52.390;9.754;2023-06-01T02:12:06;14.80;96.00
30534;DHT22;17318;52.390;9.754;2023-06-01T02:14:32;14.80;96.10
30534;DHT22;17318;52.390;9.754;2023-06-01T02:16:58;14.60;96.40
30534;DHT22;17318;52.390;9.754;2023-06-01T02:19:26;14.40;96.80
30534;DHT22;17318;52.390;9.754;2023-06-01T02:21:52;14.40;97.00
30534;DHT22;17318;52.390;9.754;2023-06-01T02:24:17;14.50;96.90
30534;DHT22;17318;52.390;9.754;2023-06-01T02:26:45;14.50;96.80
30534;DHT22;17318;52.390;9.754;2023-06-01T02:29:12;14.70;96.60
30534;DHT22;17318;52.390;9.754;2023-06-01T02:31:38;14.80;96.30
30534;DHT22;17318;52.390;9.754;2023-06-01T02:34:03;14.80;96.50
30534;DHT22;17318;52.390;9.754;2023-06-01T02:36:29;14.30;97.00
30534;DHT22;17318;52.390;9.754;2023-06-01T02:38:57;14.10;97.40
30534;DHT22;17318;52.390;9.754;2023-06-01T02:41:23;14.30;97.50
30534;DHT22;17318;52.390;9.754;2023-06-01T02:43:50;14.50;97.10
30534;DHT22;17318;52.390;9.754;2023-06-01T02:46:17;14.10;97.50
30534;DHT22;17318;52.390;9.754;2023-06-01T02:48:43;14.00;97.60
30534;DHT22;17318;52.390;9.754;2023-06-01T02:51:09;14.10;97.50
30534;DHT22;17318;52.390;9.754;2023-06-01T02:53:35;14.10;97.60
30534;DHT22;17318;52.390;9.754;2023-06-01T02:56:01;14.20;97.20
30534;DHT22;17318;52.390;9.754;2023-06-01T02:58:27;14.10;97.40
30534;DHT22;17318;52.390;9.754;2023-06-01T03:00:55;14.20;97.30
30534;DHT22;17318;52.390;9.754;2023-06-01T03:03:26;14.40;96.70
30534;DHT22;17318;52.390;9.754;2023-06-01T03:05:53;14.60;96.40
30534;DHT22;17318;52.390;9.754;2023-06-01T03:08:19;14.60;96.20
30534;DHT22;17318;52.390;9.754;2023-06-01T03:10:45;14.60;96.50
30534;DHT22;17318;52.390;9.754;2023-06-01T03:13:11;14.40;96.70
30534;DHT22;17318;52.390;9.754;2023-06-01T03:15:37;14.00;97.00
30534;DHT22;17318;52.390;9.754;2023-06-01T03:18:06;14.00;97.30
30534;DHT22;17318;52.390;9.754;2023-06-01T03:20:33;14.10;97.30
30534;DHT22;17318;52.390;9.754;2023-06-01T03:22:58;13.90;97.40
30534;DHT22;17318;52.390;9.754;2023-06-01T03:25:24;14.10;97.10
30534;DHT22;17318;52.390;9.754;2023-06-01T03:27:53;14.30;96.90
30534;DHT22;17318;52.390;9.754;2023-06-01T03:30:19;14.20;96.70
30534;DHT22;17318;52.390;9.754;2023-06-01T03:32:45;14.20;97.00
30534;DHT22;17318;52.390;9.754;2023-06-01T03:35:12;14.00;97.30
30534;DHT22;17318;52.390;9.754;2023-06-01T03:37:40;14.00;97.30
30534;DHT22;17318;52.390;9.754;2023-06-01T03:40:06;14.00;97.40
30534;DHT22;17318;52.390;9.754;2023-06-01T03:45:05;14.00;97.50
30534;DHT22;17318;52.390;9.754;2023-06-01T03:47:31;14.20;97.10
30534;DHT22;17318;52.390;9.754;2023-06-01T03:49:57;14.00;97.40
30534;DHT22;17318;52.390;9.754;2023-06-01T03:52:29;14.00;97.60
30534;DHT22;17318;52.390;9.754;2023-06-01T03:54:56;13.80;97.90
30534;DHT22;17318;52.390;9.754;2023-06-01T03:57:22;13.80;98.50
30534;DHT22;17318;52.390;9.754;2023-06-01T03:59:48;13.60;98.50
30534;DHT22;17318;52.390;9.754;2023-06-01T04:02:14;13.80;98.30
30534;DHT22;17318;52.390;9.754;2023-06-01T04:04:40;13.90;98.10
30534;DHT22;17318;52.390;9.754;2023-06-01T04:07:11;13.90;98.00
30534;DHT22;17318;52.390;9.754;2023-06-01T04:09:43;14.10;97.80
30534;DHT22;17318;52.390;9.754;2023-06-01T04:12:09;14.10;97.70
30534;DHT22;17318;52.390;9.754;2023-06-01T04:14:39;14.00;98.00
30534;DHT22;17318;52.390;9.754;2023-06-01T04:17:05;13.90;98.10
30534;DHT22;17318;52.390;9.754;2023-06-01T04:19:32;13.90;98.30
30534;DHT22;17318;52.390;9.754;2023-06-01T04:21:59;13.90;98.20
30534;DHT22;17318;52.390;9.754;2023-06-01T04:24:25;14.00;98.20
30534;DHT22;17318;52.390;9.754;2023-06-01T04:26:50;14.00;98.00
30534;DHT22;17318;52.390;9.754;2023-06-01T04:29:16;14.20;97.90
30534;DHT22;17318;52.390;9.754;2023-06-01T04:31:47;14.20;97.80
30534;DHT22;17318;52.390;9.754;2023-06-01T04:34:13;14.20;98.20
30534;DHT22;17318;52.390;9.754;2023-06-01T04:36:39;14.20;98.00
30534;DHT22;17318;52.390;9.754;2023-06-01T04:39:05;14.20;98.20
30534;DHT22;17318;52.390;9.754;2023-06-01T04:41:33;14.20;98.10
30534;DHT22;17318;52.390;9.754;2023-06-01T04:44:01;14.40;97.80
30534;DHT22;17318;52.390;9.754;2023-06-01T04:46:31;14.40;97.90
30534;DHT22;17318;52.390;9.754;2023-06-01T04:48:57;14.50;97.60
30534;DHT22;17318;52.390;9.754;2023-06-01T04:51:25;14.30;98.00
30534;DHT22;17318;52.390;9.754;2023-06-01T04:53:53;14.20;98.10
30534;DHT22;17318;52.390;9.754;2023-06-01T04:56:20;14.20;98.00
30534;DHT22;17318;52.390;9.754;2023-06-01T04:58:50;14.40;97.80
30534;DHT22;17318;52.390;9.754;2023-06-01T05:01:17;14.50;97.80
30534;DHT22;17318;52.390;9.754;2023-06-01T05:03:44;14.40;97.80
30534;DHT22;17318;52.390;9.754;2023-06-01T05:06:12;14.40;97.90
30534;DHT22;17318;52.390;9.754;2023-06-01T05:08:41;14.50;97.80
30534;DHT22;17318;52.390;9.754;2023-06-01T05:11:08;14.50;97.70
30534;DHT22;17318;52.390;9.754;2023-06-01T05:13:40;14.40;98.00
30534;DHT22;17318;52.390;9.754;2023-06-01T05:16:07;14.20;98.30
30534;DHT22;17318;52.390;9.754;2023-06-01T05:18:34;14.40;98.10
30534;DHT22;17318;52.390;9.754;2023-06-01T05:21:00;14.40;98.00
30534;DHT22;17318;52.390;9.754;2023-06-01T05:23:27;14.40;97.80
30534;DHT22;17318;52.390;9.754;2023-06-01T05:25:53;14.10;98.10
30534;DHT22;17318;52.390;9.754;2023-06-01T05:28:28;14.00;98.30
30534;DHT22;17318;52.390;9.754;2023-06-01T05:30:53;14.00;98.60
30534;DHT22;17318;52.390;9.754;2023-06-01T05:33:19;14.30;98.20
30534;DHT22;17318;52.390;9.754;2023-06-01T05:35:45;14.50;97.90
30534;DHT22;17318;52.390;9.754;2023-06-01T05:38:11;14.70;97.60
30534;DHT22;17318;52.390;9.754;2023-06-01T05:40:36;14.70;97.40
30534;DHT22;17318;52.390;9.754;2023-06-01T05:43:02;14.60;97.60
30534;DHT22;17318;52.390;9.754;2023-06-01T05:45:27;14.50;97.90
30534;DHT22;17318;52.390;9.754;2023-06-01T05:47:55;14.60;97.70
30534;DHT22;17318;52.390;9.754;2023-06-01T05:50:20;14.50;98.10
30534;DHT22;17318;52.390;9.754;2023-06-01T05:52:46;14.70;97.80
30534;DHT22;17318;52.390;9.754;2023-06-01T05:55:11;14.80;97.60
30534;DHT22;17318;52.390;9.754;2023-06-01T05:57:37;15.10;97.50
30534;DHT22;17318;52.390;9.754;2023-06-01T06:00:03;14.90;97.40
30534;DHT22;17318;52.390;9.754;2023-06-01T06:02:35;14.90;97.50
30534;DHT22;17318;52.390;9.754;2023-06-01T06:05:00;14.90;97.30
30534;DHT22;17318;52.390;9.754;2023-06-01T06:07:26;14.70;97.70
30534;DHT22;17318;52.390;9.754;2023-06-01T06:09:52;14.80;97.50
30534;DHT22;17318;52.390;9.754;2023-06-01T06:12:17;14.80;97.40
30534;DHT22;17318;52.390;9.754;2023-06-01T06:14:43;14.70;97.40
30534;DHT22;17318;52.390;9.754;2023-06-01T06:17:09;14.90;97.50
30534;DHT22;17318;52.390;9.754;2023-06-01T06:19:34;14.90;97.40
30534;DHT22;17318;52.390;9.754;2023-06-01T06:22:00;14.90;97.40
30534;DHT22;17318;52.390;9.754;2023-06-01T06:24:26;15.00;97.50
30534;DHT22;17318;52.390;9.754;2023-06-01T06:26:51;14.90;97.50
30534;DHT22;17318;52.390;9.754;2023-06-01T06:29:17;14.90;97.70
30534;DHT22;17318;52.390;9.754;2023-06-01T06:31:44;14.80;97.70
30534;DHT22;17318;52.390;9.754;2023-06-01T06:34:11;14.80;97.50
30534;DHT22;17318;52.390;9.754;2023-06-01T06:36:38;14.90;97.60
30534;DHT22;17318;52.390;9.754;2023-06-01T06:39:04;14.60;97.70
30534;DHT22;17318;52.390;9.754;2023-06-01T06:41:30;14.70;97.90
30534;DHT22;17318;52.390;9.754;2023-06-01T06:43:55;14.70;97.70
30534;DHT22;17318;52.390;9.754;2023-06-01T06:46:22;14.80;97.50
30534;DHT22;17318;52.390;9.754;2023-06-01T06:48:48;14.90;97.40
30534;DHT22;17318;52.390;9.754;2023-06-01T06:51:14;14.90;97.20
30534;DHT22;17318;52.390;9.754;2023-06-01T06:53:40;15.00;97.10
30534;DHT22;17318;52.390;9.754;2023-06-01T06:56:05;14.90;97.10
30534;DHT22;17318;52.390;9.754;2023-06-01T06:58:31;15.10;96.80
30534;DHT22;17318;52.390;9.754;2023-06-01T07:00:57;15.20;96.60
30534;DHT22;17318;52.390;9.754;2023-06-01T07:03:22;15.30;96.40
30534;DHT22;17318;52.390;9.754;2023-06-01T07:05:48;15.40;96.50
30534;DHT22;17318;52.390;9.754;2023-06-01T07:08:14;15.40;96.40
30534;DHT22;17318;52.390;9.754;2023-06-01T07:10:40;15.50;96.20
30534;DHT22;17318;52.390;9.754;2023-06-01T07:13:06;15.50;96.20
30534;DHT22;17318;52.390;9.754;2023-06-01T07:15:31;15.60;96.20
30534;DHT22;17318;52.390;9.754;2023-06-01T07:17:57;15.60;96.20
30534;DHT22;17318;52.390;9.754;2023-06-01T07:20:23;15.50;96.20
30534;DHT22;17318;52.390;9.754;2023-06-01T07:22:48;15.40;96.20
30534;DHT22;17318;52.390;9.754;2023-06-01T07:25:15;15.40;96.50
30534;DHT22;17318;52.390;9.754;2023-06-01T07:27:41;15.30;96.70
30534;DHT22;17318;52.390;9.754;2023-06-01T07:30:09;15.10;96.70
30534;DHT22;17318;52.390;9.754;2023-06-01T07:32:36;15.00;96.80
30534;DHT22;17318;52.390;9.754;2023-06-01T07:35:02;15.10;97.00
30534;DHT22;17318;52.390;9.754;2023-06-01T07:37:30;15.00;96.90
30534;DHT22;17318;52.390;9.754;2023-06-01T07:39:57;15.10;96.80
30534;DHT22;17318;52.390;9.754;2023-06-01T07:42:23;15.10;96.70
30534;DHT22;17318;52.390;9.754;2023-06-01T07:44:49;15.20;96.70
30534;DHT22;17318;52.390;9.754;2023-06-01T07:47:16;15.20;96.70
30534;DHT22;17318;52.390;9.754;2023-06-01T07:49:41;15.20;96.70
30534;DHT22;17318;52.390;9.754;2023-06-01T07:52:07;15.40;96.50
30534;DHT22;17318;52.390;9.754;2023-06-01T07:54:34;15.30;96.60
30534;DHT22;17318;52.390;9.754;2023-06-01T07:57:06;15.50;96.30
30534;DHT22;17318;52.390;9.754;2023-06-01T07:59:32;15.60;96.10
30534;DHT22;17318;52.390;9.754;2023-06-01T08:01:58;15.50;96.30
30534;DHT22;17318;52.390;9.754;2023-06-01T08:04:24;15.50;96.30
30534;DHT22;17318;52.390;9.754;2023-06-01T08:06:51;15.30;96.50
30534;DHT22;17318;52.390;9.754;2023-06-01T08:09:22;15.30;96.50
30534;DHT22;17318;52.390;9.754;2023-06-01T08:11:49;15.20;96.70
30534;DHT22;17318;52.390;9.754;2023-06-01T08:14:16;15.40;96.50
30534;DHT22;17318;52.390;9.754;2023-06-01T08:16:42;15.30;96.30
30534;DHT22;17318;52.390;9.754;2023-06-01T08:19:08;15.30;96.60
30534;DHT22;17318;52.390;9.754;2023-06-01T08:21:34;15.10;96.70
30534;DHT22;17318;52.390;9.754;2023-06-01T08:24:00;15.10;96.70
30534;DHT22;17318;52.390;9.754;2023-06-01T08:26:27;15.30;96.60
30534;DHT22;17318;52.390;9.754;2023-06-01T08:28:53;15.40;96.40
30534;DHT22;17318;52.390;9.754;2023-06-01T08:31:20;15.30;96.60
30534;DHT22;17318;52.390;9.754;2023-06-01T08:33:47;15.40;96.30
30534;DHT22;17318;52.390;9.754;2023-06-01T08:36:13;15.40;96.60
30534;DHT22;17318;52.390;9.754;2023-06-01T08:38:39;15.60;96.40
30534;DHT22;17318;52.390;9.754;2023-06-01T08:41:20;15.80;96.10
30534;DHT22;17318;52.390;9.754;2023-06-01T08:43:59;16.10;95.90
30534;DHT22;17318;52.390;9.754;2023-06-01T08:46:26;16.10;95.80
30534;DHT22;17318;52.390;9.754;2023-06-01T08:48:55;16.10;95.80
30534;DHT22;17318;52.390;9.754;2023-06-01T08:51:23;16.00;96.00
30534;DHT22;17318;52.390;9.754;2023-06-01T08:53:50;16.00;96.10
30534;DHT22;17318;52.390;9.754;2023-06-01T08:56:17;16.00;96.10
30534;DHT22;17318;52.390;9.754;2023-06-01T08:58:46;16.00;96.30
30534;DHT22;17318;52.390;9.754;2023-06-01T09:01:20;15.90;96.30
30534;DHT22;17318;52.390;9.754;2023-06-01T09:03:50;15.60;96.70
30534;DHT22;17318;52.390;9.754;2023-06-01T09:06:17;15.50;96.80
30534;DHT22;17318;52.390;9.754;2023-06-01T09:08:44;15.60;96.90
30534;DHT22;17318;52.390;9.754;2023-06-01T09:11:10;15.80;96.80
30534;DHT22;17318;52.390;9.754;2023-06-01T09:13:40;15.70;96.60
30534;DHT22;17318;52.390;9.754;2023-06-01T09:16:06;15.60;96.60
30534;DHT22;17318;52.390;9.754;2023-06-01T09:18:32;15.80;96.50
30534;DHT22;17318;52.390;9.754;2023-06-01T09:21:18;15.90;96.40
30534;DHT22;17318;52.390;9.754;2023-06-01T09:23:44;15.60;96.60
30534;DHT22;17318;52.390;9.754;2023-06-01T09:26:11;15.80;96.40
30534;DHT22;17318;52.390;9.754;2023-06-01T09:28:59;16.00;96.40
30534;DHT22;17318;52.390;9.754;2023-06-01T09:31:35;15.80;96.40
30534;DHT22;17318;52.390;9.754;2023-06-01T09:34:01;15.90;96.30
30534;DHT22;17318;52.390;9.754;2023-06-01T09:36:27;16.10;96.20
30534;DHT22;17318;52.390;9.754;2023-06-01T09:39:18;16.10;96.10
30534;DHT22;17318;52.390;9.754;2023-06-01T09:41:58;16.20;95.90
30534;DHT22;17318;52.390;9.754;2023-06-01T09:44:32;16.20;95.80
30534;DHT22;17318;52.390;9.754;2023-06-01T09:47:03;16.30;95.90
30534;DHT22;17318;52.390;9.754;2023-06-01T09:49:30;16.40;95.70
30534;DHT22;17318;52.390;9.754;2023-06-01T09:54:46;16.10;95.90
30534;DHT22;17318;52.390;9.754;2023-06-01T09:57:12;16.20;95.90
30534;DHT22;17318;52.390;9.754;2023-06-01T09:59:45;16.30;96.00
30534;DHT22;17318;52.390;9.754;2023-06-01T10:02:30;16.30;95.80
30534;DHT22;17318;52.390;9.754;2023-06-01T10:04:59;16.30;95.80
30534;DHT22;17318;52.390;9.754;2023-06-01T10:07:31;16.50;95.70
30534;DHT22;17318;52.390;9.754;2023-06-01T10:10:00;16.40;95.70
30534;DHT22;17318;52.390;9.754;2023-06-01T10:12:27;16.40;95.80
30534;DHT22;17318;52.390;9.754;2023-06-01T10:14:55;16.30;95.80
30534;DHT22;17318;52.390;9.754;2023-06-01T10:17:22;16.30;96.10
30534;DHT22;17318;52.390;9.754;2023-06-01T10:19:48;16.10;96.20
30534;DHT22;17318;52.390;9.754;2023-06-01T10:22:14;16.10;96.10
30534;DHT22;17318;52.390;9.754;2023-06-01T10:24:41;16.20;96.30
30534;DHT22;17318;52.390;9.754;2023-06-01T10:29:40;16.50;95.90
30534;DHT22;17318;52.390;9.754;2023-06-01T10:32:40;16.80;95.70
30534;DHT22;17318;52.390;9.754;2023-06-01T10:35:09;16.70;95.60
30534;DHT22;17318;52.390;9.754;2023-06-01T10:37:38;16.70;95.60
30534;DHT22;17318;52.390;9.754;2023-06-01T10:40:30;16.10;96.10
30534;DHT22;17318;52.390;9.754;2023-06-01T10:42:55;16.30;96.20
30534;DHT22;17318;52.390;9.754;2023-06-01T10:45:37;16.30;96.20
30534;DHT22;17318;52.390;9.754;2023-06-01T10:48:08;16.50;96.00
30534;DHT22;17318;52.390;9.754;2023-06-01T10:50:37;16.70;95.80
30534;DHT22;17318;52.390;9.754;2023-06-01T10:53:29;16.70;95.80
30534;DHT22;17318;52.390;9.754;2023-06-01T10:58:42;16.50;95.80
30534;DHT22;17318;52.390;9.754;2023-06-01T11:01:10;16.30;96.10
30534;DHT22;17318;52.390;9.754;2023-06-01T11:03:43;16.40;96.20
30534;DHT22;17318;52.390;9.754;2023-06-01T11:06:29;16.50;96.00
30534;DHT22;17318;52.390;9.754;2023-06-01T11:08:57;16.40;96.30
30534;DHT22;17318;52.390;9.754;2023-06-01T11:11:23;16.60;96.00
30534;DHT22;17318;52.390;9.754;2023-06-01T11:14:10;16.70;95.70
30534;DHT22;17318;52.390;9.754;2023-06-01T11:16:36;16.80;95.70
30534;DHT22;17318;52.390;9.754;2023-06-01T11:19:04;16.80;95.60
30534;DHT22;17318;52.390;9.754;2023-06-01T11:21:35;16.50;95.90
30534;DHT22;17318;52.390;9.754;2023-06-01T11:26:42;16.60;96.00
30534;DHT22;17318;52.390;9.754;2023-06-01T11:31:45;16.30;96.50
30534;DHT22;17318;52.390;9.754;2023-06-01T11:34:13;16.40;96.50
30534;DHT22;17318;52.390;9.754;2023-06-01T11:36:43;16.50;96.40
30534;DHT22;17318;52.390;9.754;2023-06-01T11:39:24;16.60;96.20
30534;DHT22;17318;52.390;9.754;2023-06-01T11:42:04;16.50;96.30
30534;DHT22;17318;52.390;9.754;2023-06-01T11:44:31;16.70;96.20
30534;DHT22;17318;52.390;9.754;2023-06-01T11:46:57;16.40;96.40
30534;DHT22;17318;52.390;9.754;2023-06-01T11:49:24;16.20;96.80
30534;DHT22;17318;52.390;9.754;2023-06-01T11:51:51;16.30;96.90
30534;DHT22;17318;52.390;9.754;2023-06-01T11:54:27;16.40;96.80
30534;DHT22;17318;52.390;9.754;2023-06-01T11:56:55;16.60;96.50
30534;DHT22;17318;52.390;9.754;2023-06-01T11:59:21;16.60;96.40
30534;DHT22;17318;52.390;9.754;2023-06-01T12:01:48;16.70;96.30
30534;DHT22;17318;52.390;9.754;2023-06-01T12:04:22;16.80;96.20
30534;DHT22;17318;52.390;9.754;2023-06-01T12:06:49;16.90;96.10
30534;DHT22;17318;52.390;9.754;2023-06-01T12:09:15;16.60;96.20
30534;DHT22;17318;52.390;9.754;2023-06-01T12:11:43;16.50;96.30
30534;DHT22;17318;52.390;9.754;2023-06-01T12:14:10;16.40;96.70
30534;DHT22;17318;52.390;9.754;2023-06-01T12:16:58;16.40;96.60
30534;DHT22;17318;52.390;9.754;2023-06-01T12:19:26;16.60;96.50
30534;DHT22;17318;52.390;9.754;2023-06-01T12:21:58;16.50;96.30
30534;DHT22;17318;52.390;9.754;2023-06-01T12:24:31;16.80;96.10
30534;DHT22;17318;52.390;9.754;2023-06-01T12:26:59;17.00;95.70
30534;DHT22;17318;52.390;9.754;2023-06-01T12:29:38;17.10;95.50
30534;DHT22;17318;52.390;9.754;2023-06-01T12:32:05;17.10;95.30
30534;DHT22;17318;52.390;9.754;2023-06-01T12:34:31;17.20;95.10
30534;DHT22;17318;52.390;9.754;2023-06-01T12:36:56;17.00;94.90
30534;DHT22;17318;52.390;9.754;2023-06-01T12:39:32;16.90;95.00
30534;DHT22;17318;52.390;9.754;2023-06-01T12:42:05;17.10;95.20
30534;DHT22;17318;52.390;9.754;2023-06-01T12:44:32;17.10;95.00
30534;DHT22;17318;52.390;9.754;2023-06-01T12:47:00;17.10;94.80
30534;DHT22;17318;52.390;9.754;2023-06-01T12:49:26;17.10;95.00
30534;DHT22;17318;52.390;9.754;2023-06-01T12:51:53;17.30;94.90
30534;DHT22;17318;52.390;9.754;2023-06-01T12:54:19;17.40;94.70
30534;DHT22;17318;52.390;9.754;2023-06-01T12:56:47;17.30;94.50
30534;DHT22;17318;52.390;9.754;2023-06-01T12:59:12;17.40;94.50
30534;DHT22;17318;52.390;9.754;2023-06-01T13:01:38;17.30;94.40
30534;DHT22;17318;52.390;9.754;2023-06-01T13:04:04;17.40;94.50
30534;DHT22;17318;52.390;9.754;2023-06-01T13:06:29;17.50;94.30
30534;DHT22;17318;52.390;9.754;2023-06-01T13:08:55;17.60;94.20
30534;DHT22;17318;52.390;9.754;2023-06-01T13:11:21;17.50;93.80
30534;DHT22;17318;52.390;9.754;2023-06-01T13:13:50;17.40;93.70
30534;DHT22;17318;52.390;9.754;2023-06-01T13:16:16;17.40;93.80
30534;DHT22;17318;52.390;9.754;2023-06-01T13:18:43;17.40;93.70
30534;DHT22;17318;52.390;9.754;2023-06-01T13:21:09;17.40;93.60
30534;DHT22;17318;52.390;9.754;2023-06-01T13:23:35;17.60;93.30
30534;DHT22;17318;52.390;9.754;2023-06-01T13:26:01;17.70;93.30
30534;DHT22;17318;52.390;9.754;2023-06-01T13:28:27;17.70;93.20
30534;DHT22;17318;52.390;9.754;2023-06-01T13:30:52;17.80;92.80
30534;DHT22;17318;52.390;9.754;2023-06-01T13:33:20;17.90;92.70
30534;DHT22;17318;52.390;9.754;2023-06-01T13:35:46;17.90;92.60
30534;DHT22;17318;52.390;9.754;2023-06-01T13:38:13;17.70;92.50
30534;DHT22;17318;52.390;9.754;2023-06-01T13:40:42;17.80;92.80
30534;DHT22;17318;52.390;9.754;2023-06-01T13:43:07;17.80;92.70
30534;DHT22;17318;52.390;9.754;2023-06-01T13:45:33;17.90;93.00
30534;DHT22;17318;52.390;9.754;2023-06-01T13:48:00;17.70;93.10
30534;DHT22;17318;52.390;9.754;2023-06-01T13:50:26;17.70;93.00
30534;DHT22;17318;52.390;9.754;2023-06-01T13:52:52;17.60;92.90
30534;DHT22;17318;52.390;9.754;2023-06-01T13:55:19;17.70;92.70
30534;DHT22;17318;52.390;9.754;2023-06-01T13:57:45;17.90;92.30
30534;DHT22;17318;52.390;9.754;2023-06-01T14:00:11;18.10;92.00
30534;DHT22;17318;52.390;9.754;2023-06-01T14:02:37;18.10;91.70
30534;DHT22;17318;52.390;9.754;2023-06-01T14:05:03;18.20;91.50
30534;DHT22;17318;52.390;9.754;2023-06-01T14:07:29;18.20;91.40
30534;DHT22;17318;52.390;9.754;2023-06-01T14:09:55;18.10;91.50
30534;DHT22;17318;52.390;9.754;2023-06-01T14:12:21;18.10;91.50
30534;DHT22;17318;52.390;9.754;2023-06-01T14:14:47;18.10;91.60
30534;DHT22;17318;52.390;9.754;2023-06-01T14:17:13;18.20;91.60
30534;DHT22;17318;52.390;9.754;2023-06-01T14:19:39;18.20;91.40
30534;DHT22;17318;52.390;9.754;2023-06-01T14:22:04;18.10;91.50
30534;DHT22;17318;52.390;9.754;2023-06-01T14:24:30;18.20;91.60
30534;DHT22;17318;52.390;9.754;2023-06-01T14:26:56;18.30;91.60
30534;DHT22;17318;52.390;9.754;2023-06-01T14:29:21;18.30;91.30
30534;DHT22;17318;52.390;9.754;2023-06-01T14:31:47;18.10;91.60
30534;DHT22;17318;52.390;9.754;2023-06-01T14:34:12;18.10;91.40
30534;DHT22;17318;52.390;9.754;2023-06-01T14:36:38;18.20;91.60
30534;DHT22;17318;52.390;9.754;2023-06-01T14:39:04;18.40;91.50
30534;DHT22;17318;52.390;9.754;2023-06-01T14:41:30;18.60;91.20
30534;DHT22;17318;52.390;9.754;2023-06-01T14:43:56;18.80;91.10
30534;DHT22;17318;52.390;9.754;2023-06-01T14:46:21;18.90;90.90
30534;DHT22;17318;52.390;9.754;2023-06-01T14:48:47;18.90;90.80
30534;DHT22;17318;52.390;9.754;2023-06-01T14:51:13;18.90;90.70
30534;DHT22;17318;52.390;9.754;2023-06-01T14:53:39;18.60;90.40
30534;DHT22;17318;52.390;9.754;2023-06-01T14:56:07;18.20;90.80
30534;DHT22;17318;52.390;9.754;2023-06-01T14:58:34;18.20;90.80
30534;DHT22;17318;52.390;9.754;2023-06-01T15:01:00;18.30;91.20
30534;DHT22;17318;52.390;9.754;2023-06-01T15:03:25;18.40;90.80
30534;DHT22;17318;52.390;9.754;2023-06-01T15:05:51;18.30;90.90
30534;DHT22;17318;52.390;9.754;2023-06-01T15:08:17;18.20;90.90
30534;DHT22;17318;52.390;9.754;2023-06-01T15:10:46;18.10;91.10
30534;DHT22;17318;52.390;9.754;2023-06-01T15:13:12;18.00;90.50
30534;DHT22;17318;52.390;9.754;2023-06-01T15:15:41;18.10;90.70
30534;DHT22;17318;52.390;9.754;2023-06-01T15:18:06;18.00;90.60
30534;DHT22;17318;52.390;9.754;2023-06-01T15:20:32;18.30;90.70
30534;DHT22;17318;52.390;9.754;2023-06-01T15:22:58;18.30;90.40
30534;DHT22;17318;52.390;9.754;2023-06-01T15:25:23;18.50;90.40
30534;DHT22;17318;52.390;9.754;2023-06-01T15:27:50;18.50;90.30
30534;DHT22;17318;52.390;9.754;2023-06-01T15:30:15;18.50;90.10
30534;DHT22;17318;52.390;9.754;2023-06-01T15:32:41;18.60;90.20
30534;DHT22;17318;52.390;9.754;2023-06-01T15:35:07;18.70;90.20
30534;DHT22;17318;52.390;9.754;2023-06-01T15:37:34;18.70;90.40
30534;DHT22;17318;52.390;9.754;2023-06-01T15:40:00;18.80;90.30
30534;DHT22;17318;52.390;9.754;2023-06-01T15:42:26;18.90;90.30
30534;DHT22;17318;52.390;9.754;2023-06-01T15:44:52;18.90;90.00
30534;DHT22;17318;52.390;9.754;2023-06-01T15:47:17;19.00;90.10
30534;DHT22;17318;52.390;9.754;2023-06-01T15:49:43;18.90;90.00
30534;DHT22;17318;52.390;9.754;2023-06-01T15:52:09;18.80;90.10
30534;DHT22;17318;52.390;9.754;2023-06-01T15:54:35;18.80;90.00